Fountain, Illinois
Current Conditions -  °F | °C
As of 3:53 AM on Thursday 29 Jan 2015 (Local Time) from KCPS Reporting Station
Clear Clear  
Wind Chill: 52°   Ceiling: Unl
Heat Index: 52°   Visibility: 10mi
Dew Point: 40°   Wind: 9mph
Humidity: 63%   Direction: 220°SW
Pressure: 29.78"   Gusts: NA
Location:  38.2838°N, 90.3044°W
Report Text: KCPS 290953Z AUTO 22008KT 10SM CLR 11/04 A2978 RMK AO2 SLP084 T01110044 TSNO
Loading
Personal Weather Stations






























Interactive Weather Map New forecast layout! Learn more

10-Day Weather Forecast

Advertisements
Track Severe Weather on mobile